sensor_id;sensor_type;location;lat;lon;timestamp;temperature;humidity
2050;DHT22;8478;49.208;8.806;2023-07-20T00:01:25;21.20;99.90
2050;DHT22;8478;49.208;8.806;2023-07-20T00:03:50;21.20;99.90
2050;DHT22;8478;49.208;8.806;2023-07-20T00:06:24;21.20;99.90
2050;DHT22;8478;49.208;8.806;2023-07-20T00:08:51;21.20;99.90
2050;DHT22;8478;49.208;8.806;2023-07-20T00:11:17;21.20;99.90
2050;DHT22;8478;49.208;8.806;2023-07-20T00:13:42;21.20;99.90
2050;DHT22;8478;49.208;8.806;2023-07-20T00:16:08;21.20;99.90
2050;DHT22;8478;49.208;8.806;2023-07-20T00:18:34;21.20;99.90
2050;DHT22;8478;49.208;8.806;2023-07-20T00:20:59;21.20;99.90
2050;DHT22;8478;49.208;8.806;2023-07-20T00:23:26;21.20;99.90
2050;DHT22;8478;49.208;8.806;2023-07-20T00:25:51;21.20;99.90
2050;DHT22;8478;49.208;8.806;2023-07-20T00:28:17;21.20;99.90
2050;DHT22;8478;49.208;8.806;2023-07-20T00:30:43;21.20;99.90
2050;DHT22;8478;49.208;8.806;2023-07-20T00:33:12;21.20;99.90
2050;DHT22;8478;49.208;8.806;2023-07-20T00:35:38;21.20;99.90
2050;DHT22;8478;49.208;8.806;2023-07-20T00:38:05;21.20;99.90
2050;DHT22;8478;49.208;8.806;2023-07-20T00:40:37;21.20;99.90
2050;DHT22;8478;49.208;8.806;2023-07-20T00:43:03;21.20;99.90
2050;DHT22;8478;49.208;8.806;2023-07-20T00:45:29;21.20;99.90
2050;DHT22;8478;49.208;8.806;2023-07-20T00:47:56;21.20;99.90
2050;DHT22;8478;49.208;8.806;2023-07-20T00:50:24;21.20;99.90
2050;DHT22;8478;49.208;8.806;2023-07-20T00:52:49;21.10;99.90
2050;DHT22;8478;49.208;8.806;2023-07-20T00:55:15;21.10;99.90
2050;DHT22;8478;49.208;8.806;2023-07-20T00:57:41;21.10;99.90
2050;DHT22;8478;49.208;8.806;2023-07-20T01:00:07;21.10;99.90
2050;DHT22;8478;49.208;8.806;2023-07-20T01:02:33;21.10;99.90
2050;DHT22;8478;49.208;8.806;2023-07-20T01:04:59;21.10;99.90
2050;DHT22;8478;49.208;8.806;2023-07-20T01:07:26;21.10;99.90
2050;DHT22;8478;49.208;8.806;2023-07-20T01:10:10;21.10;99.90
2050;DHT22;8478;49.208;8.806;2023-07-20T01:12:47;21.10;99.90
2050;DHT22;8478;49.208;8.806;2023-07-20T01:15:13;21.10;99.90
2050;DHT22;8478;49.208;8.806;2023-07-20T01:17:39;21.10;99.90
2050;DHT22;8478;49.208;8.806;2023-07-20T01:20:06;21.10;99.90
2050;DHT22;8478;49.208;8.806;2023-07-20T01:25:32;21.10;99.90
2050;DHT22;8478;49.208;8.806;2023-07-20T01:28:23;21.10;99.90
2050;DHT22;8478;49.208;8.806;2023-07-20T01:31:23;21.10;99.90
2050;DHT22;8478;49.208;8.806;2023-07-20T01:33:52;21.10;99.90
2050;DHT22;8478;49.208;8.806;2023-07-20T01:36:19;21.10;99.90
2050;DHT22;8478;49.208;8.806;2023-07-20T01:38:47;21.00;99.90
2050;DHT22;8478;49.208;8.806;2023-07-20T01:41:14;21.00;99.90
2050;DHT22;8478;49.208;8.806;2023-07-20T01:43:40;21.00;99.90
2050;DHT22;8478;49.208;8.806;2023-07-20T01:46:06;21.00;99.90
2050;DHT22;8478;49.208;8.806;2023-07-20T01:48:32;21.00;99.90
2050;DHT22;8478;49.208;8.806;2023-07-20T01:50:57;21.00;99.90
2050;DHT22;8478;49.208;8.806;2023-07-20T01:53:23;21.00;99.90
2050;DHT22;8478;49.208;8.806;2023-07-20T01:55:49;21.00;99.90
2050;DHT22;8478;49.208;8.806;2023-07-20T01:58:15;21.00;99.90
2050;DHT22;8478;49.208;8.806;2023-07-20T02:00:40;21.00;99.90
2050;DHT22;8478;49.208;8.806;2023-07-20T02:03:06;21.00;99.90
2050;DHT22;8478;49.208;8.806;2023-07-20T02:05:32;21.00;99.90
2050;DHT22;8478;49.208;8.806;2023-07-20T02:07:57;21.00;99.90
2050;DHT22;8478;49.208;8.806;2023-07-20T02:10:23;21.00;99.90
2050;DHT22;8478;49.208;8.806;2023-07-20T02:12:49;21.00;99.90
2050;DHT22;8478;49.208;8.806;2023-07-20T02:15:15;21.00;99.90
2050;DHT22;8478;49.208;8.806;2023-07-20T02:17:42;20.90;99.90
2050;DHT22;8478;49.208;8.806;2023-07-20T02:20:11;20.90;99.90
2050;DHT22;8478;49.208;8.806;2023-07-20T02:22:37;20.90;99.90
2050;DHT22;8478;49.208;8.806;2023-07-20T02:25:07;20.90;99.90
2050;DHT22;8478;49.208;8.806;2023-07-20T02:27:37;20.90;99.90
2050;DHT22;8478;49.208;8.806;2023-07-20T02:30:03;20.90;99.90
2050;DHT22;8478;49.208;8.806;2023-07-20T02:32:30;20.90;99.90
2050;DHT22;8478;49.208;8.806;2023-07-20T02:34:55;20.90;99.90
2050;DHT22;8478;49.208;8.806;2023-07-20T02:37:21;20.90;99.90
2050;DHT22;8478;49.208;8.806;2023-07-20T02:39:47;20.90;99.90
2050;DHT22;8478;49.208;8.806;2023-07-20T02:42:12;20.90;99.90
2050;DHT22;8478;49.208;8.806;2023-07-20T02:44:38;20.90;99.90
2050;DHT22;8478;49.208;8.806;2023-07-20T02:47:04;20.90;99.90
2050;DHT22;8478;49.208;8.806;2023-07-20T02:49:30;20.90;99.90
2050;DHT22;8478;49.208;8.806;2023-07-20T02:51:55;20.80;99.90
2050;DHT22;8478;49.208;8.806;2023-07-20T02:54:21;20.80;99.90
2050;DHT22;8478;49.208;8.806;2023-07-20T02:56:47;20.80;99.90
2050;DHT22;8478;49.208;8.806;2023-07-20T02:59:13;20.80;99.90
2050;DHT22;8478;49.208;8.806;2023-07-20T03:01:38;20.80;99.90
2050;DHT22;8478;49.208;8.806;2023-07-20T03:04:04;20.80;99.90
2050;DHT22;8478;49.208;8.806;2023-07-20T03:06:30;20.80;99.90
2050;DHT22;8478;49.208;8.806;2023-07-20T03:08:56;20.80;99.90
2050;DHT22;8478;49.208;8.806;2023-07-20T03:11:22;20.80;99.90
2050;DHT22;8478;49.208;8.806;2023-07-20T03:13:47;20.80;99.90
2050;DHT22;8478;49.208;8.806;2023-07-20T03:16:18;20.80;99.90
2050;DHT22;8478;49.208;8.806;2023-07-20T03:18:44;20.80;99.90
2050;DHT22;8478;49.208;8.806;2023-07-20T03:21:10;20.80;99.90
2050;DHT22;8478;49.208;8.806;2023-07-20T03:23:40;20.80;99.90
2050;DHT22;8478;49.208;8.806;2023-07-20T03:26:06;20.80;99.90
2050;DHT22;8478;49.208;8.806;2023-07-20T03:28:36;20.80;99.90
2050;DHT22;8478;49.208;8.806;2023-07-20T03:31:02;20.80;99.90
2050;DHT22;8478;49.208;8.806;2023-07-20T03:33:29;20.80;99.90
2050;DHT22;8478;49.208;8.806;2023-07-20T03:35:55;20.80;99.90
2050;DHT22;8478;49.208;8.806;2023-07-20T03:38:24;20.70;99.90
2050;DHT22;8478;49.208;8.806;2023-07-20T03:40:55;20.70;99.90
2050;DHT22;8478;49.208;8.806;2023-07-20T03:43:22;20.70;99.90
2050;DHT22;8478;49.208;8.806;2023-07-20T03:45:49;20.70;99.90
2050;DHT22;8478;49.208;8.806;2023-07-20T03:48:20;20.70;99.90
2050;DHT22;8478;49.208;8.806;2023-07-20T03:50:48;20.70;99.90
2050;DHT22;8478;49.208;8.806;2023-07-20T03:53:14;20.70;99.90
2050;DHT22;8478;49.208;8.806;2023-07-20T03:55:50;20.70;99.90
2050;DHT22;8478;49.208;8.806;2023-07-20T03:58:17;20.70;99.90
2050;DHT22;8478;49.208;8.806;2023-07-20T04:00:48;20.70;99.90
2050;DHT22;8478;49.208;8.806;2023-07-20T04:03:14;20.70;99.90
2050;DHT22;8478;49.208;8.806;2023-07-20T04:05:39;20.70;99.90
2050;DHT22;8478;49.208;8.806;2023-07-20T04:08:05;20.70;99.90
2050;DHT22;8478;49.208;8.806;2023-07-20T04:10:31;20.70;99.90
2050;DHT22;8478;49.208;8.806;2023-07-20T04:12:57;20.70;99.90
2050;DHT22;8478;49.208;8.806;2023-07-20T04:15:22;20.70;99.90
2050;DHT22;8478;49.208;8.806;2023-07-20T04:17:49;20.70;99.90
2050;DHT22;8478;49.208;8.806;2023-07-20T04:20:15;20.70;99.90
2050;DHT22;8478;49.208;8.806;2023-07-20T04:22:40;20.70;99.90
2050;DHT22;8478;49.208;8.806;2023-07-20T04:25:06;20.60;99.90
2050;DHT22;8478;49.208;8.806;2023-07-20T04:27:33;20.60;99.90
2050;DHT22;8478;49.208;8.806;2023-07-20T04:29:58;20.60;99.90
2050;DHT22;8478;49.208;8.806;2023-07-20T04:32:27;20.60;99.90
2050;DHT22;8478;49.208;8.806;2023-07-20T04:34:53;20.60;99.90
2050;DHT22;8478;49.208;8.806;2023-07-20T04:37:19;20.60;99.90
2050;DHT22;8478;49.208;8.806;2023-07-20T04:39:44;20.60;99.90
2050;DHT22;8478;49.208;8.806;2023-07-20T04:42:10;20.60;99.90
2050;DHT22;8478;49.208;8.806;2023-07-20T04:44:35;20.60;99.90
2050;DHT22;8478;49.208;8.806;2023-07-20T04:47:01;20.60;99.90
2050;DHT22;8478;49.208;8.806;2023-07-20T04:49:28;20.60;99.90
2050;DHT22;8478;49.208;8.806;2023-07-20T04:51:53;20.60;99.90
2050;DHT22;8478;49.208;8.806;2023-07-20T04:54:19;20.60;99.90
2050;DHT22;8478;49.208;8.806;2023-07-20T04:56:45;20.60;99.90
2050;DHT22;8478;49.208;8.806;2023-07-20T04:59:11;20.60;99.90
2050;DHT22;8478;49.208;8.806;2023-07-20T05:01:37;20.60;99.90
2050;DHT22;8478;49.208;8.806;2023-07-20T05:04:03;20.60;99.90
2050;DHT22;8478;49.208;8.806;2023-07-20T05:06:28;20.60;99.90
2050;DHT22;8478;49.208;8.806;2023-07-20T05:08:54;20.60;99.90
2050;DHT22;8478;49.208;8.806;2023-07-20T05:11:20;20.60;99.90
2050;DHT22;8478;49.208;8.806;2023-07-20T05:13:45;20.60;99.90
2050;DHT22;8478;49.208;8.806;2023-07-20T05:16:11;20.60;99.90
2050;DHT22;8478;49.208;8.806;2023-07-20T05:18:37;20.60;99.90
2050;DHT22;8478;49.208;8.806;2023-07-20T05:21:02;20.60;99.90
2050;DHT22;8478;49.208;8.806;2023-07-20T05:23:28;20.60;99.90
2050;DHT22;8478;49.208;8.806;2023-07-20T05:25:55;20.60;99.90
2050;DHT22;8478;49.208;8.806;2023-07-20T05:28:22;20.60;99.90
2050;DHT22;8478;49.208;8.806;2023-07-20T05:30:47;20.60;99.90
2050;DHT22;8478;49.208;8.806;2023-07-20T05:33:13;20.60;99.90
2050;DHT22;8478;49.208;8.806;2023-07-20T05:35:39;20.60;99.90
2050;DHT22;8478;49.208;8.806;2023-07-20T05:38:05;20.60;99.90
2050;DHT22;8478;49.208;8.806;2023-07-20T05:40:32;20.60;99.90
2050;DHT22;8478;49.208;8.806;2023-07-20T05:42:57;20.60;99.90
2050;DHT22;8478;49.208;8.806;2023-07-20T05:45:24;20.60;99.90
2050;DHT22;8478;49.208;8.806;2023-07-20T05:47:50;20.60;99.90
2050;DHT22;8478;49.208;8.806;2023-07-20T05:50:15;20.60;99.90
2050;DHT22;8478;49.208;8.806;2023-07-20T05:52:41;20.60;99.90
2050;DHT22;8478;49.208;8.806;2023-07-20T05:55:07;20.60;99.90
2050;DHT22;8478;49.208;8.806;2023-07-20T05:57:33;20.60;99.90
2050;DHT22;8478;49.208;8.806;2023-07-20T05:59:59;20.50;99.90
2050;DHT22;8478;49.208;8.806;2023-07-20T06:02:24;20.50;99.90
2050;DHT22;8478;49.208;8.806;2023-07-20T06:04:50;20.50;99.90
2050;DHT22;8478;49.208;8.806;2023-07-20T06:07:16;20.50;99.90
2050;DHT22;8478;49.208;8.806;2023-07-20T06:09:41;20.50;99.90
2050;DHT22;8478;49.208;8.806;2023-07-20T06:12:08;20.60;99.90
2050;DHT22;8478;49.208;8.806;2023-07-20T06:14:34;20.60;99.90
2050;DHT22;8478;49.208;8.806;2023-07-20T06:17:00;20.60;99.90
2050;DHT22;8478;49.208;8.806;2023-07-20T06:19:25;20.50;99.90
2050;DHT22;8478;49.208;8.806;2023-07-20T06:21:51;20.50;99.90
2050;DHT22;8478;49.208;8.806;2023-07-20T06:24:17;20.50;99.90
2050;DHT22;8478;49.208;8.806;2023-07-20T06:26:43;20.50;99.90
2050;DHT22;8478;49.208;8.806;2023-07-20T06:29:08;20.50;99.90
2050;DHT22;8478;49.208;8.806;2023-07-20T06:31:37;20.50;99.90
2050;DHT22;8478;49.208;8.806;2023-07-20T06:34:03;20.50;99.90
2050;DHT22;8478;49.208;8.806;2023-07-20T06:36:29;20.50;99.90
2050;DHT22;8478;49.208;8.806;2023-07-20T06:38:55;20.50;99.90
2050;DHT22;8478;49.208;8.806;2023-07-20T06:41:21;20.50;99.90
2050;DHT22;8478;49.208;8.806;2023-07-20T06:43:48;20.50;99.90
2050;DHT22;8478;49.208;8.806;2023-07-20T06:46:13;20.50;99.90
2050;DHT22;8478;49.208;8.806;2023-07-20T06:48:39;20.50;99.90
2050;DHT22;8478;49.208;8.806;2023-07-20T06:51:05;20.50;99.90
2050;DHT22;8478;49.208;8.806;2023-07-20T06:53:31;20.50;99.90
2050;DHT22;8478;49.208;8.806;2023-07-20T06:55:57;20.50;99.90
2050;DHT22;8478;49.208;8.806;2023-07-20T06:58:23;20.50;99.90
2050;DHT22;8478;49.208;8.806;2023-07-20T07:00:49;20.50;99.90
2050;DHT22;8478;49.208;8.806;2023-07-20T07:03:15;20.50;99.90
2050;DHT22;8478;49.208;8.806;2023-07-20T07:05:41;20.50;99.90
2050;DHT22;8478;49.208;8.806;2023-07-20T07:08:07;20.50;99.90
2050;DHT22;8478;49.208;8.806;2023-07-20T07:10:34;20.50;99.90
2050;DHT22;8478;49.208;8.806;2023-07-20T07:13:01;20.50;99.90
2050;DHT22;8478;49.208;8.806;2023-07-20T07:15:26;20.50;99.90
2050;DHT22;8478;49.208;8.806;2023-07-20T07:17:53;20.50;99.90
2050;DHT22;8478;49.208;8.806;2023-07-20T07:20:18;20.50;99.90
2050;DHT22;8478;49.208;8.806;2023-07-20T07:22:44;20.50;99.90
2050;DHT22;8478;49.208;8.806;2023-07-20T07:25:12;20.50;99.90
2050;DHT22;8478;49.208;8.806;2023-07-20T07:27:38;20.50;99.90
2050;DHT22;8478;49.208;8.806;2023-07-20T07:30:04;20.50;99.90
2050;DHT22;8478;49.208;8.806;2023-07-20T07:32:30;20.50;99.90
2050;DHT22;8478;49.208;8.806;2023-07-20T07:34:56;20.50;99.90
2050;DHT22;8478;49.208;8.806;2023-07-20T07:37:24;20.50;99.90
2050;DHT22;8478;49.208;8.806;2023-07-20T07:39:49;20.50;99.90
2050;DHT22;8478;49.208;8.806;2023-07-20T07:42:15;20.50;99.90
2050;DHT22;8478;49.208;8.806;2023-07-20T07:44:41;20.50;99.90
2050;DHT22;8478;49.208;8.806;2023-07-20T07:47:07;20.50;99.90
2050;DHT22;8478;49.208;8.806;2023-07-20T07:49:32;20.50;99.90
2050;DHT22;8478;49.208;8.806;2023-07-20T07:51:58;20.50;99.90
2050;DHT22;8478;49.208;8.806;2023-07-20T07:54:24;20.50;99.90
2050;DHT22;8478;49.208;8.806;2023-07-20T07:56:50;20.50;99.90
2050;DHT22;8478;49.208;8.806;2023-07-20T07:59:16;20.50;99.90
2050;DHT22;8478;49.208;8.806;2023-07-20T08:01:42;20.50;99.90
2050;DHT22;8478;49.208;8.806;2023-07-20T08:04:08;20.50;99.90
2050;DHT22;8478;49.208;8.806;2023-07-20T08:06:34;20.50;99.90
2050;DHT22;8478;49.208;8.806;2023-07-20T08:09:00;20.50;99.90
2050;DHT22;8478;49.208;8.806;2023-07-20T08:11:26;20.50;99.90
2050;DHT22;8478;49.208;8.806;2023-07-20T08:13:51;20.50;99.90
2050;DHT22;8478;49.208;8.806;2023-07-20T08:16:17;20.50;99.90
2050;DHT22;8478;49.208;8.806;2023-07-20T08:18:43;20.50;99.90
2050;DHT22;8478;49.208;8.806;2023-07-20T08:21:09;20.50;99.90
2050;DHT22;8478;49.208;8.806;2023-07-20T08:23:35;20.50;99.90
2050;DHT22;8478;49.208;8.806;2023-07-20T08:26:01;20.50;99.90
2050;DHT22;8478;49.208;8.806;2023-07-20T08:28:26;20.50;99.90
2050;DHT22;8478;49.208;8.806;2023-07-20T08:30:52;20.50;99.90
2050;DHT22;8478;49.208;8.806;2023-07-20T08:33:19;20.50;99.90
2050;DHT22;8478;49.208;8.806;2023-07-20T08:35:45;20.50;99.90
2050;DHT22;8478;49.208;8.806;2023-07-20T08:38:11;20.50;99.90
2050;DHT22;8478;49.208;8.806;2023-07-20T08:40:45;20.50;99.90
2050;DHT22;8478;49.208;8.806;2023-07-20T08:43:11;20.50;99.90
2050;DHT22;8478;49.208;8.806;2023-07-20T08:45:39;20.50;99.90
2050;DHT22;8478;49.208;8.806;2023-07-20T08:48:06;20.50;99.90
2050;DHT22;8478;49.208;8.806;2023-07-20T08:50:33;20.50;99.90
2050;DHT22;8478;49.208;8.806;2023-07-20T08:53:00;20.50;99.90
2050;DHT22;8478;49.208;8.806;2023-07-20T08:55:26;20.50;99.90
2050;DHT22;8478;49.208;8.806;2023-07-20T08:57:54;20.50;99.90
2050;DHT22;8478;49.208;8.806;2023-07-20T09:00:22;20.50;99.90
2050;DHT22;8478;49.208;8.806;2023-07-20T09:02:52;20.50;99.90
2050;DHT22;8478;49.208;8.806;2023-07-20T09:05:19;20.50;99.90
2050;DHT22;8478;49.208;8.806;2023-07-20T09:07:45;20.50;99.90
2050;DHT22;8478;49.208;8.806;2023-07-20T09:10:10;20.50;99.90
2050;DHT22;8478;49.208;8.806;2023-07-20T09:12:38;20.50;99.90
2050;DHT22;8478;49.208;8.806;2023-07-20T09:15:05;20.50;99.90
2050;DHT22;8478;49.208;8.806;2023-07-20T09:17:31;20.50;99.90
2050;DHT22;8478;49.208;8.806;2023-07-20T09:19:57;20.50;99.90
2050;DHT22;8478;49.208;8.806;2023-07-20T09:22:30;20.50;99.90
2050;DHT22;8478;49.208;8.806;2023-07-20T09:24:57;20.50;99.90
2050;DHT22;8478;49.208;8.806;2023-07-20T09:27:55;20.50;99.90
2050;DHT22;8478;49.208;8.806;2023-07-20T09:30:25;20.50;99.90
2050;DHT22;8478;49.208;8.806;2023-07-20T09:32:51;20.50;99.90
2050;DHT22;8478;49.208;8.806;2023-07-20T09:35:20;20.50;99.90
2050;DHT22;8478;49.208;8.806;2023-07-20T09:40:16;20.50;99.90
2050;DHT22;8478;49.208;8.806;2023-07-20T09:42:43;20.50;99.90
2050;DHT22;8478;49.208;8.806;2023-07-20T09:45:09;20.50;99.90
2050;DHT22;8478;49.208;8.806;2023-07-20T09:47:36;20.50;99.90
2050;DHT22;8478;49.208;8.806;2023-07-20T09:50:04;20.50;99.90
2050;DHT22;8478;49.208;8.806;2023-07-20T09:52:30;20.50;99.90
2050;DHT22;8478;49.208;8.806;2023-07-20T09:54:57;20.50;99.90
2050;DHT22;8478;49.208;8.806;2023-07-20T09:57:23;20.50;99.90
2050;DHT22;8478;49.208;8.806;2023-07-20T09:59:50;20.50;99.90
2050;DHT22;8478;49.208;8.806;2023-07-20T10:02:22;20.50;99.90
2050;DHT22;8478;49.208;8.806;2023-07-20T10:04:53;20.50;99.90
2050;DHT22;8478;49.208;8.806;2023-07-20T10:07:21;20.50;99.90
2050;DHT22;8478;49.208;8.806;2023-07-20T10:09:48;20.50;99.90
2050;DHT22;8478;49.208;8.806;2023-07-20T10:12:16;20.50;99.90
2050;DHT22;8478;49.208;8.806;2023-07-20T10:14:52;20.50;99.90
2050;DHT22;8478;49.208;8.806;2023-07-20T10:17:19;20.50;99.90
2050;DHT22;8478;49.208;8.806;2023-07-20T10:19:50;20.50;99.90
2050;DHT22;8478;49.208;8.806;2023-07-20T10:22:25;20.50;99.90
2050;DHT22;8478;49.208;8.806;2023-07-20T10:24:51;20.50;99.90
2050;DHT22;8478;49.208;8.806;2023-07-20T10:27:20;20.50;99.90
2050;DHT22;8478;49.208;8.806;2023-07-20T10:29:47;20.50;99.90
2050;DHT22;8478;49.208;8.806;2023-07-20T10:32:13;20.50;99.90
2050;DHT22;8478;49.208;8.806;2023-07-20T10:34:39;20.50;99.90
2050;DHT22;8478;49.208;8.806;2023-07-20T10:37:05;20.50;99.90
2050;DHT22;8478;49.208;8.806;2023-07-20T10:39:32;20.50;99.90
2050;DHT22;8478;49.208;8.806;2023-07-20T10:44:29;20.50;99.90
2050;DHT22;8478;49.208;8.806;2023-07-20T10:47:03;20.50;99.90
2050;DHT22;8478;49.208;8.806;2023-07-20T10:49:33;20.50;99.90
2050;DHT22;8478;49.208;8.806;2023-07-20T10:52:03;20.50;99.90
2050;DHT22;8478;49.208;8.806;2023-07-20T10:57:22;20.50;99.90
2050;DHT22;8478;49.208;8.806;2023-07-20T10:59:48;20.50;99.90
2050;DHT22;8478;49.208;8.806;2023-07-20T11:02:18;20.50;99.90
2050;DHT22;8478;49.208;8.806;2023-07-20T11:04:47;20.50;99.90
2050;DHT22;8478;49.208;8.806;2023-07-20T11:10:13;20.50;99.90
2050;DHT22;8478;49.208;8.806;2023-07-20T11:12:40;20.50;99.90
2050;DHT22;8478;49.208;8.806;2023-07-20T11:15:06;20.50;99.90
2050;DHT22;8478;49.208;8.806;2023-07-20T11:17:33;20.50;99.90
2050;DHT22;8478;49.208;8.806;2023-07-20T11:20:00;20.50;99.90
2050;DHT22;8478;49.208;8.806;2023-07-20T11:22:27;20.50;99.90
2050;DHT22;8478;49.208;8.806;2023-07-20T11:24:56;20.50;99.90
2050;DHT22;8478;49.208;8.806;2023-07-20T11:27:21;20.50;99.90
2050;DHT22;8478;49.208;8.806;2023-07-20T11:29:50;20.50;99.90
2050;DHT22;8478;49.208;8.806;2023-07-20T11:32:23;20.50;99.90
2050;DHT22;8478;49.208;8.806;2023-07-20T11:34:49;20.50;99.90
2050;DHT22;8478;49.208;8.806;2023-07-20T11:37:17;20.50;99.90
2050;DHT22;8478;49.208;8.806;2023-07-20T11:39:43;20.50;99.90
2050;DHT22;8478;49.208;8.806;2023-07-20T11:42:09;20.50;99.90
2050;DHT22;8478;49.208;8.806;2023-07-20T11:44:35;20.50;99.90
2050;DHT22;8478;49.208;8.806;2023-07-20T11:47:04;20.50;99.90
2050;DHT22;8478;49.208;8.806;2023-07-20T11:49:41;20.50;99.90
2050;DHT22;8478;49.208;8.806;2023-07-20T11:52:13;20.50;99.90
2050;DHT22;8478;49.208;8.806;2023-07-20T11:54:41;20.50;99.90
2050;DHT22;8478;49.208;8.806;2023-07-20T11:57:07;20.50;99.90
2050;DHT22;8478;49.208;8.806;2023-07-20T11:59:55;20.50;99.90
2050;DHT22;8478;49.208;8.806;2023-07-20T12:02:23;20.50;99.90
2050;DHT22;8478;49.208;8.806;2023-07-20T12:04:51;20.50;99.90
2050;DHT22;8478;49.208;8.806;2023-07-20T12:07:18;20.50;99.90
2050;DHT22;8478;49.208;8.806;2023-07-20T12:09:44;20.50;99.90
2050;DHT22;8478;49.208;8.806;2023-07-20T12:12:11;20.50;99.90
2050;DHT22;8478;49.208;8.806;2023-07-20T12:14:39;20.50;99.90
2050;DHT22;8478;49.208;8.806;2023-07-20T12:17:08;20.50;99.90
2050;DHT22;8478;49.208;8.806;2023-07-20T12:19:38;20.50;99.90
2050;DHT22;8478;49.208;8.806;2023-07-20T12:22:04;20.50;99.90
2050;DHT22;8478;49.208;8.806;2023-07-20T12:24:31;20.50;99.90
2050;DHT22;8478;49.208;8.806;2023-07-20T12:26:57;20.50;99.90
2050;DHT22;8478;49.208;8.806;2023-07-20T12:29:23;20.50;99.90
2050;DHT22;8478;49.208;8.806;2023-07-20T12:31:49;20.50;99.90
2050;DHT22;8478;49.208;8.806;2023-07-20T12:34:15;20.50;99.90
2050;DHT22;8478;49.208;8.806;2023-07-20T12:36:41;20.50;99.90
2050;DHT22;8478;49.208;8.806;2023-07-20T12:39:06;20.50;99.90
2050;DHT22;8478;49.208;8.806;2023-07-20T12:41:32;20.50;99.90
2050;DHT22;8478;49.208;8.806;2023-07-20T12:43:58;20.60;99.90
2050;DHT22;8478;49.208;8.806;2023-07-20T12:46:24;20.50;99.90
2050;DHT22;8478;49.208;8.806;2023-07-20T12:48:50;20.50;99.90
2050;DHT22;8478;49.208;8.806;2023-07-20T12:51:15;20.50;99.90
2050;DHT22;8478;49.208;8.806;2023-07-20T12:53:42;20.50;99.90
2050;DHT22;8478;49.208;8.806;2023-07-20T12:56:07;20.60;99.90
2050;DHT22;8478;49.208;8.806;2023-07-20T12:58:33;20.60;99.90
2050;DHT22;8478;49.208;8.806;2023-07-20T13:00:59;20.50;99.90
2050;DHT22;8478;49.208;8.806;2023-07-20T13:03:24;20.60;99.90
2050;DHT22;8478;49.208;8.806;2023-07-20T13:05:50;20.60;99.90
2050;DHT22;8478;49.208;8.806;2023-07-20T13:08:16;20.60;99.90
2050;DHT22;8478;49.208;8.806;2023-07-20T13:10:42;20.60;99.90
2050;DHT22;8478;49.208;8.806;2023-07-20T13:13:08;20.50;99.90
2050;DHT22;8478;49.208;8.806;2023-07-20T13:15:42;20.60;99.90
2050;DHT22;8478;49.208;8.806;2023-07-20T13:18:08;20.60;99.90
2050;DHT22;8478;49.208;8.806;2023-07-20T13:20:33;20.60;99.90
2050;DHT22;8478;49.208;8.806;2023-07-20T13:22:59;20.60;99.90
2050;DHT22;8478;49.208;8.806;2023-07-20T13:25:25;20.60;99.90
2050;DHT22;8478;49.208;8.806;2023-07-20T13:27:51;20.60;99.90
2050;DHT22;8478;49.208;8.806;2023-07-20T13:30:17;20.60;99.90
2050;DHT22;8478;49.208;8.806;2023-07-20T13:32:45;20.60;99.90
2050;DHT22;8478;49.208;8.806;2023-07-20T13:35:11;20.60;99.90
2050;DHT22;8478;49.208;8.806;2023-07-20T13:37:37;20.60;99.90
2050;DHT22;8478;49.208;8.806;2023-07-20T13:40:03;20.60;99.90
2050;DHT22;8478;49.208;8.806;2023-07-20T13:42:34;20.60;99.90
2050;DHT22;8478;49.208;8.806;2023-07-20T13:44:59;20.60;99.90
2050;DHT22;8478;49.208;8.806;2023-07-20T13:47:26;20.60;99.90
2050;DHT22;8478;49.208;8.806;2023-07-20T13:49:52;20.60;99.90
2050;DHT22;8478;49.208;8.806;2023-07-20T13:52:17;20.60;99.90
2050;DHT22;8478;49.208;8.806;2023-07-20T13:54:43;20.60;99.90
2050;DHT22;8478;49.208;8.806;2023-07-20T13:57:09;20.60;99.90
2050;DHT22;8478;49.208;8.806;2023-07-20T13:59:35;20.60;99.90
2050;DHT22;8478;49.208;8.806;2023-07-20T14:02:00;20.60;99.90
2050;DHT22;8478;49.208;8.806;2023-07-20T14:04:26;20.60;99.90
2050;DHT22;8478;49.208;8.806;2023-07-20T14:06:52;20.60;99.90
2050;DHT22;8478;49.208;8.806;2023-07-20T14:09:17;20.60;99.90
2050;DHT22;8478;49.208;8.806;2023-07-20T14:11:43;20.70;99.90
2050;DHT22;8478;49.208;8.806;2023-07-20T14:14:09;20.60;99.90
2050;DHT22;8478;49.208;8.806;2023-07-20T14:16:34;20.60;99.90
2050;DHT22;8478;49.208;8.806;2023-07-20T14:19:00;20.60;99.90
2050;DHT22;8478;49.208;8.806;2023-07-20T14:21:26;20.60;99.90
2050;DHT22;8478;49.208;8.806;2023-07-20T14:23:52;20.70;99.90
2050;DHT22;8478;49.208;8.806;2023-07-20T14:26:19;20.70;99.90
2050;DHT22;8478;49.208;8.806;2023-07-20T14:28:44;20.70;99.90
2050;DHT22;8478;49.208;8.806;2023-07-20T14:31:10;20.70;99.90
2050;DHT22;8478;49.208;8.806;2023-07-20T14:33:36;20.70;99.90
2050;DHT22;8478;49.208;8.806;2023-07-20T14:36:02;20.70;99.90
2050;DHT22;8478;49.208;8.806;2023-07-20T14:38:30;20.70;99.90
2050;DHT22;8478;49.208;8.806;2023-07-20T14:40:56;20.70;99.90
2050;DHT22;8478;49.208;8.806;2023-07-20T14:43:21;20.70;99.90
2050;DHT22;8478;49.208;8.806;2023-07-20T14:45:47;20.70;99.90
2050;DHT22;8478;49.208;8.806;2023-07-20T14:48:13;20.70;99.90
2050;DHT22;8478;49.208;8.806;2023-07-20T14:50:38;20.70;99.90
2050;DHT22;8478;49.208;8.806;2023-07-20T14:53:04;20.70;99.90
2050;DHT22;8478;49.208;8.806;2023-07-20T14:55:30;20.70;99.90
2050;DHT22;8478;49.208;8.806;2023-07-20T14:57:55;20.70;99.90
2050;DHT22;8478;49.208;8.806;2023-07-20T15:00:21;20.70;99.90
2050;DHT22;8478;49.208;8.806;2023-07-20T15:02:47;20.70;99.90
2050;DHT22;8478;49.208;8.806;2023-07-20T15:05:20;20.70;99.90
2050;DHT22;8478;49.208;8.806;2023-07-20T15:07:46;20.70;99.90
2050;DHT22;8478;49.208;8.806;2023-07-20T15:10:12;20.70;99.90
2050;DHT22;8478;49.208;8.806;2023-07-20T15:12:38;20.70;99.90
2050;DHT22;8478;49.208;8.806;2023-07-20T15:15:05;20.70;99.90
2050;DHT22;8478;49.208;8.806;2023-07-20T15:17:32;20.70;99.90
2050;DHT22;8478;49.208;8.806;2023-07-20T15:19:58;20.80;99.90
2050;DHT22;8478;49.208;8.806;2023-07-20T15:22:25;20.80;99.90
2050;DHT22;8478;49.208;8.806;2023-07-20T15:24:51;20.80;99.90
2050;DHT22;8478;49.208;8.806;2023-07-20T15:27:16;20.80;99.90
2050;DHT22;8478;49.208;8.806;2023-07-20T15:29:42;20.80;99.90
2050;DHT22;8478;49.208;8.806;2023-07-20T15:32:09;20.80;99.90
2050;DHT22;8478;49.208;8.806;2023-07-20T15:34:35;20.80;99.90
2050;DHT22;8478;49.208;8.806;2023-07-20T15:37:01;20.80;99.90
2050;DHT22;8478;49.208;8.806;2023-07-20T15:39:28;20.80;99.90
2050;DHT22;8478;49.208;8.806;2023-07-20T15:41:54;20.80;99.90
2050;DHT22;8478;49.208;8.806;2023-07-20T15:44:20;20.80;99.90
2050;DHT22;8478;49.208;8.806;2023-07-20T15:46:47;20.80;99.90
2050;DHT22;8478;49.208;8.806;2023-07-20T15:49:14;20.80;99.90
2050;DHT22;8478;49.208;8.806;2023-07-20T15:51:39;20.80;99.90
2050;DHT22;8478;49.208;8.806;2023-07-20T15:54:11;20.80;99.90
2050;DHT22;8478;49.208;8.806;2023-07-20T15:56:39;20.80;99.90
2050;DHT22;8478;49.208;8.806;2023-07-20T15:59:05;20.80;99.90
2050;DHT22;8478;49.208;8.806;2023-07-20T16:01:31;20.80;99.90
2050;DHT22;8478;49.208;8.806;2023-07-20T16:03:57;20.80;99.90
2050;DHT22;8478;49.208;8.806;2023-07-20T16:06:23;20.80;99.90
2050;DHT22;8478;49.208;8.806;2023-07-20T16:08:49;20.80;99.90
2050;DHT22;8478;49.208;8.806;2023-07-20T16:11:17;20.80;99.90
2050;DHT22;8478;49.208;8.806;2023-07-20T16:13:43;20.80;99.90